Alquina, Indiana
Current Conditions -  °F | °C
As of 1:55 PM on Friday 21 Nov 2014 (Local Time) from KI67 Reporting Station
Clear Clear  
Wind Chill: 32°   Ceiling: Unl
Heat Index: 32°   Visibility: 10mi
Dew Point:   Wind: 0mph
Humidity: 38%   Direction: NA
Pressure: 30.48"   Gusts: NA
Location:  39.645°N, 85.1744°W
Report Text: KI67 211855Z AUTO 00000KT 10SM CLR 00/M13 A3048 RMK AO1
Loading
Personal Weather Stations






























Interactive Weather Map New forecast layout! Learn more

10-Day Weather Forecast

Advertisements
Track Severe Weather on mobile